createdAt,value
2018-07-10T00:00:53.143Z,72.33
2018-07-10T00:01:53.286Z,72.14
2018-07-10T00:02:53.093Z,72.53
2018-07-10T00:03:53.195Z,72.81
2018-07-10T00:04:53.051Z,72.43
2018-07-10T00:05:53.215Z,72.43
2018-07-10T00:06:53.010Z,72.24
2018-07-10T00:07:53.125Z,72.05
2018-07-10T00:08:52.967Z,72.43
2018-07-10T00:09:53.138Z,72.43
2018-07-10T00:10:52.928Z,72.05
2018-07-10T00:11:53.051Z,72.33
2018-07-10T00:12:52.885Z,71.57
2018-07-10T00:13:53.063Z,72.05
2018-07-10T00:14:52.838Z,71.95
2018-07-10T00:15:52.871Z,72.14
2018-07-10T00:16:52.794Z,72.33
2018-07-10T00:17:52.887Z,72.43
2018-07-10T00:18:52.748Z,72.53
2018-07-10T00:19:52.799Z,72.72
2018-07-10T00:20:52.768Z,72.72
2018-07-10T00:21:52.712Z,72.91
2018-07-10T00:22:52.667Z,72.81
2018-07-10T00:23:52.726Z,72.91
2018-07-10T00:24:52.623Z,72.81
2018-07-10T00:25:52.631Z,73.20
2018-07-10T00:26:52.577Z,73.39
2018-07-10T00:27:52.648Z,73.77
2018-07-10T00:28:52.538Z,73.30
2018-07-10T00:29:52.575Z,73.20
2018-07-10T00:30:52.495Z,73.77
2018-07-10T00:31:52.579Z,73.45
2018-07-10T00:32:52.439Z,73.45
2018-07-10T00:33:52.492Z,73.55
2018-07-10T00:34:52.409Z,74.22
2018-07-10T00:35:52.505Z,74.22
2018-07-10T00:36:52.361Z,74.12
2018-07-10T00:37:52.416Z,73.93
2018-07-10T00:38:52.318Z,73.74
2018-07-10T00:39:52.430Z,74.22
2018-07-10T00:40:52.278Z,74.22
2018-07-10T00:41:52.341Z,74.41
2018-07-10T00:42:52.236Z,74.79
2018-07-10T00:43:52.357Z,74.98
2018-07-10T00:44:52.187Z,74.51
2018-07-10T00:45:52.269Z,74.79
2018-07-10T00:46:52.143Z,74.79
2018-07-10T00:47:52.180Z,74.79
2018-07-10T00:48:52.110Z,74.79
2018-07-10T00:49:52.196Z,74.51
2018-07-10T00:50:52.057Z,74.60
2018-07-10T00:51:52.105Z,75.27
2018-07-10T00:52:52.015Z,74.41
2018-07-10T00:53:52.119Z,74.60
2018-07-10T00:54:51.973Z,74.31
2018-07-10T00:55:52.032Z,74.89
2018-07-10T00:56:51.925Z,75.27
2018-07-10T00:57:52.048Z,74.98
2018-07-10T00:58:51.883Z,75.37
2018-07-10T00:59:51.963Z,74.69
2018-07-10T01:00:51.844Z,75.18
2018-07-10T01:01:51.962Z,75.37
2018-07-10T01:02:51.801Z,75.95
2018-07-10T01:03:51.874Z,75.46
2018-07-10T01:04:51.758Z,75.18
2018-07-10T01:05:51.800Z,75.46
2018-07-10T01:06:51.712Z,75.27
2018-07-10T01:07:51.803Z,75.56
2018-07-10T01:08:51.682Z,74.98
2018-07-10T01:09:51.814Z,75.46
2018-07-10T01:10:51.613Z,75.75
2018-07-10T01:11:51.731Z,75.95
2018-07-10T01:12:51.577Z,75.65
2018-07-10T01:13:51.640Z,76.14
2018-07-10T01:14:51.533Z,75.95
2018-07-10T01:15:51.663Z,76.04
2018-07-10T01:16:51.499Z,76.29
2018-07-10T01:17:51.567Z,75.65
2018-07-10T01:18:51.497Z,75.81
2018-07-10T01:19:51.581Z,76.23
2018-07-10T01:20:51.404Z,75.95
2018-07-10T01:21:51.492Z,75.75
2018-07-10T01:22:51.368Z,76.39
2018-07-10T01:23:51.446Z,75.81
2018-07-10T01:24:51.318Z,75.85
2018-07-10T01:25:51.428Z,75.95
2018-07-10T01:26:51.294Z,75.90
2018-07-10T01:27:51.340Z,76.00
2018-07-10T01:28:51.224Z,76.52
2018-07-10T01:29:51.369Z,76.39
2018-07-10T01:30:51.185Z,76.00
2018-07-10T01:31:51.292Z,76.00
2018-07-10T01:32:51.136Z,76.19
2018-07-10T01:33:51.288Z,76.29
2018-07-10T01:34:51.108Z,76.10
2018-07-10T01:35:51.197Z,76.39
2018-07-10T01:36:51.053Z,75.71
2018-07-10T01:37:51.230Z,76.10
2018-07-10T01:38:51.008Z,76.10
2018-07-10T01:39:51.120Z,75.62
2018-07-10T01:40:50.963Z,75.52
2018-07-10T01:41:51.136Z,75.90
2018-07-10T01:42:50.924Z,76.48
2018-07-10T01:43:51.045Z,76.29
2018-07-10T01:44:50.875Z,76.19
2018-07-10T01:45:50.953Z,76.29
2018-07-10T01:46:50.833Z,76.77
2018-07-10T01:47:50.970Z,76.86
2018-07-10T01:48:50.787Z,78.40
2018-07-10T01:49:50.879Z,78.78
2018-07-10T01:50:50.742Z,79.07
2018-07-10T01:51:50.895Z,80.03
2018-07-10T01:52:50.701Z,80.22
2018-07-10T01:53:50.811Z,80.60
2018-07-10T01:54:50.659Z,80.89
2018-07-10T01:55:50.813Z,80.32
2018-07-10T01:56:50.611Z,80.70
2018-07-10T01:57:50.736Z,80.70
2018-07-10T01:58:50.566Z,81.27
2018-07-10T01:59:50.746Z,81.85
2018-07-10T02:00:50.522Z,81.56
2018-07-10T02:01:50.661Z,82.52
2018-07-10T02:02:50.478Z,81.75
2018-07-10T02:03:50.673Z,82.52
2018-07-10T02:04:50.434Z,82.42
2018-07-10T02:05:50.590Z,83.00
2018-07-10T02:06:50.389Z,83.09
2018-07-10T02:07:50.496Z,83.29
2018-07-10T02:08:50.346Z,83.00
2018-07-10T02:09:50.511Z,83.00
2018-07-10T02:10:50.305Z,83.95
2018-07-10T02:11:50.321Z,83.58
2018-07-10T02:12:50.258Z,83.29
2018-07-10T02:13:50.334Z,83.00
2018-07-10T02:14:50.215Z,83.09
2018-07-10T02:15:50.244Z,82.96
2018-07-10T02:16:50.166Z,83.63
2018-07-10T02:17:50.259Z,84.11
2018-07-10T02:18:50.126Z,84.49
2018-07-10T02:19:50.176Z,84.68
2018-07-10T02:20:50.085Z,85.16
2018-07-10T02:21:50.184Z,86.12
2018-07-10T02:22:50.036Z,86.60
2018-07-10T02:23:50.096Z,87.65
2018-07-10T02:24:49.998Z,88.13
2018-07-10T02:25:50.009Z,88.70
2018-07-10T02:26:49.955Z,88.61
2018-07-10T02:27:50.023Z,88.85
2018-07-10T02:28:49.904Z,88.95
2018-07-10T02:29:49.936Z,89.33
2018-07-10T02:30:49.862Z,88.95
2018-07-10T02:31:49.949Z,89.43
2018-07-10T02:32:49.816Z,89.43
2018-07-10T02:33:49.862Z,89.43
2018-07-10T02:34:49.770Z,90.29
2018-07-10T02:36:49.725Z,89.90
2018-07-10T02:37:49.788Z,89.52
2018-07-10T02:38:49.681Z,90.09
2018-07-10T02:39:49.802Z,90.00
2018-07-10T02:40:49.637Z,90.00
2018-07-10T02:41:49.716Z,90.00
2018-07-10T02:42:49.593Z,90.00
2018-07-10T02:43:49.624Z,89.62
2018-07-10T02:44:49.550Z,89.62
2018-07-10T02:45:49.641Z,90.19
2018-07-10T02:46:49.506Z,89.43
2018-07-10T02:47:49.550Z,88.37
2018-07-10T02:48:49.459Z,87.51
2018-07-10T02:49:49.566Z,87.61
2018-07-10T02:50:49.415Z,87.41
2018-07-10T02:51:49.477Z,87.80
2018-07-10T02:52:49.369Z,87.51
2018-07-10T02:53:49.492Z,87.32
2018-07-10T02:54:49.327Z,87.80
2018-07-10T02:55:49.404Z,87.23
2018-07-10T02:56:49.280Z,87.32
2018-07-10T02:57:49.417Z,86.84
2018-07-10T02:58:49.233Z,87.03
2018-07-10T02:59:49.329Z,86.94
2018-07-10T03:00:49.191Z,86.27
2018-07-10T03:01:49.245Z,86.27
2018-07-10T03:02:49.144Z,86.94
2018-07-10T03:03:49.254Z,86.46
2018-07-10T03:04:49.102Z,85.88
2018-07-10T03:05:49.169Z,86.17
2018-07-10T03:06:49.059Z,86.08
2018-07-10T03:07:49.188Z,85.79
2018-07-10T03:08:49.016Z,86.08
2018-07-10T03:09:49.092Z,86.17
2018-07-10T03:10:48.967Z,86.08
2018-07-10T03:11:49.110Z,86.27
2018-07-10T03:12:48.920Z,85.98
2018-07-10T03:13:49.021Z,86.27
2018-07-10T03:14:48.880Z,86.55
2018-07-10T03:15:49.034Z,86.74
2018-07-10T03:16:48.851Z,86.65
2018-07-10T03:17:48.949Z,86.65
2018-07-10T03:18:48.788Z,85.98
2018-07-10T03:19:48.863Z,86.17
2018-07-10T03:20:48.748Z,86.51
2018-07-10T03:21:48.875Z,86.46
2018-07-10T03:22:48.700Z,86.55
2018-07-10T03:23:48.782Z,86.55
2018-07-10T03:24:48.659Z,86.36
2018-07-10T03:25:48.798Z,86.65
2018-07-10T03:26:48.605Z,86.65
2018-07-10T03:27:48.708Z,86.65
2018-07-10T03:28:48.561Z,86.65
2018-07-10T03:29:48.724Z,86.17
2018-07-10T03:30:48.514Z,86.61
2018-07-10T03:31:48.634Z,86.13
2018-07-10T03:32:48.471Z,86.70
2018-07-10T03:33:48.546Z,87.08
2018-07-10T03:34:48.434Z,86.90
2018-07-10T03:35:48.561Z,87.18
2018-07-10T03:36:48.382Z,87.37
2018-07-10T03:37:48.473Z,87.37
2018-07-10T03:38:48.425Z,86.90
2018-07-10T03:39:48.486Z,86.80
2018-07-10T03:40:48.291Z,86.99
2018-07-10T03:41:48.398Z,86.90
2018-07-10T03:42:48.245Z,87.23
2018-07-10T03:43:48.412Z,87.08
2018-07-10T03:44:48.238Z,86.99
2018-07-10T03:45:48.326Z,87.03
2018-07-10T03:46:48.155Z,86.99
2018-07-10T03:47:48.340Z,87.08
2018-07-10T03:48:48.111Z,87.56
2018-07-10T03:49:48.267Z,87.08
2018-07-10T03:50:48.070Z,87.27
2018-07-10T03:51:48.162Z,87.76
2018-07-10T03:52:48.021Z,87.85
2018-07-10T03:53:48.177Z,87.56
2018-07-10T03:54:47.973Z,87.85
2018-07-10T03:55:48.090Z,88.04
2018-07-10T03:56:47.932Z,87.66
2018-07-10T03:57:48.102Z,87.85
2018-07-10T03:58:47.891Z,87.56
2018-07-10T03:59:48.014Z,87.90
2018-07-10T04:00:47.840Z,87.76
2018-07-10T04:01:48.029Z,87.85
2018-07-10T04:02:47.795Z,87.76
2018-07-10T04:03:47.942Z,87.76
2018-07-10T04:04:47.751Z,87.66
2018-07-10T04:05:47.852Z,88.23
2018-07-10T04:06:47.707Z,87.76
2018-07-10T04:07:47.868Z,87.76
2018-07-10T04:08:47.659Z,87.56
2018-07-10T04:09:47.676Z,87.76
2018-07-10T04:10:47.616Z,87.85
2018-07-10T04:11:47.745Z,87.85
2018-07-10T04:12:47.574Z,87.76
2018-07-10T04:13:47.601Z,87.99
2018-07-10T04:14:47.525Z,87.76
2018-07-10T04:15:47.617Z,87.70
2018-07-10T04:16:47.481Z,87.23
2018-07-10T04:17:47.532Z,86.74
2018-07-10T04:18:47.433Z,87.13
2018-07-10T04:19:47.439Z,86.84
2018-07-10T04:20:47.389Z,87.41
2018-07-10T04:21:47.456Z,87.41
2018-07-10T04:22:47.342Z,87.23
2018-07-10T04:23:47.365Z,87.13
2018-07-10T04:24:47.297Z,86.46
2018-07-10T04:25:47.380Z,87.03
2018-07-10T04:26:47.251Z,86.84
2018-07-10T04:27:47.291Z,87.13
2018-07-10T04:28:47.250Z,86.84
2018-07-10T04:29:47.315Z,86.36
2018-07-10T04:30:47.164Z,86.94
2018-07-10T04:31:47.224Z,86.08
2018-07-10T04:32:47.121Z,86.84
2018-07-10T04:33:47.237Z,86.84
2018-07-10T04:34:47.070Z,85.88
2018-07-10T04:35:47.152Z,86.55
2018-07-10T04:36:47.020Z,86.65
2018-07-10T04:37:47.060Z,86.08
2018-07-10T04:38:46.983Z,85.88
2018-07-10T04:39:47.068Z,86.36
2018-07-10T04:40:46.939Z,86.46
2018-07-10T04:41:46.985Z,85.88
2018-07-10T04:42:46.899Z,85.50
2018-07-10T04:43:47.001Z,85.21
2018-07-10T04:44:46.864Z,85.79
2018-07-10T04:45:46.913Z,85.21
2018-07-10T04:46:46.801Z,85.41
2018-07-10T04:47:46.927Z,85.69
2018-07-10T04:48:46.755Z,85.79
2018-07-10T04:49:46.836Z,85.50
2018-07-10T04:50:46.710Z,85.21
2018-07-10T04:51:46.750Z,85.12
2018-07-10T04:52:46.667Z,84.45
2018-07-10T04:53:46.764Z,84.64
2018-07-10T04:54:46.620Z,84.45
2018-07-10T04:55:46.776Z,84.64
2018-07-10T04:56:46.588Z,84.45
2018-07-10T04:57:46.690Z,84.06
2018-07-10T04:58:46.529Z,84.16
2018-07-10T04:59:46.601Z,83.92
2018-07-10T05:00:46.486Z,83.25
2018-07-10T05:01:46.613Z,83.53
2018-07-10T05:02:46.442Z,83.05
2018-07-10T05:03:46.527Z,82.76
2018-07-10T05:04:46.396Z,82.19
2018-07-10T05:05:46.563Z,82.09
2018-07-10T05:06:46.351Z,81.71
2018-07-10T05:07:46.451Z,81.71
2018-07-10T05:08:46.306Z,81.90
2018-07-10T05:09:46.361Z,81.90
2018-07-10T05:10:46.262Z,81.81
2018-07-10T05:11:46.375Z,81.62
2018-07-10T05:12:46.217Z,81.71
2018-07-10T05:13:46.288Z,81.90
2018-07-10T05:14:46.174Z,82.57
2018-07-10T05:15:46.303Z,81.71
2018-07-10T05:16:46.123Z,81.62
2018-07-10T05:17:46.253Z,81.43
2018-07-10T05:18:46.082Z,82.00
2018-07-10T05:19:46.239Z,81.13
2018-07-10T05:20:46.037Z,80.47
2018-07-10T05:21:46.139Z,81.13
2018-07-10T05:22:45.992Z,80.85
2018-07-10T05:23:46.152Z,81.43
2018-07-10T05:24:45.948Z,80.94
2018-07-10T05:25:46.064Z,81.43
2018-07-10T05:26:45.904Z,82.29
2018-07-10T05:27:45.977Z,81.90
2018-07-10T05:28:45.907Z,82.19
2018-07-10T05:29:45.990Z,81.52
2018-07-10T05:30:45.811Z,81.81
2018-07-10T05:31:45.903Z,81.90
2018-07-10T05:32:45.769Z,82.00
2018-07-10T05:33:45.916Z,82.09
2018-07-10T05:34:45.736Z,81.71
2018-07-10T05:35:45.829Z,81.62
2018-07-10T05:36:45.687Z,81.71
2018-07-10T05:37:45.842Z,81.52
2018-07-10T05:38:45.631Z,81.90
2018-07-10T05:39:45.765Z,81.71
2018-07-10T05:40:45.587Z,81.52
2018-07-10T05:41:45.667Z,81.71
2018-07-10T05:42:45.542Z,81.62
2018-07-10T05:43:45.682Z,81.23
2018-07-10T05:44:45.503Z,81.04
2018-07-10T05:45:45.592Z,81.13
2018-07-10T05:46:45.455Z,81.23
2018-07-10T05:47:45.608Z,81.13
2018-07-10T05:48:45.409Z,80.94
2018-07-10T05:49:45.519Z,80.56
2018-07-10T05:50:45.366Z,81.04
2018-07-10T05:51:45.555Z,81.13
2018-07-10T05:52:45.321Z,80.66
2018-07-10T05:53:45.445Z,81.52
2018-07-10T05:54:45.291Z,81.52
2018-07-10T05:55:45.460Z,81.13
2018-07-10T05:56:45.229Z,80.56
2018-07-10T05:57:45.371Z,80.47
2018-07-10T05:58:45.234Z,80.76
2018-07-10T05:59:45.288Z,80.47
2018-07-10T06:00:45.146Z,80.47
2018-07-10T06:01:45.297Z,80.56
2018-07-10T06:02:45.095Z,79.80
2018-07-10T06:03:45.208Z,79.60
2018-07-10T06:04:45.054Z,79.70
2018-07-10T06:05:45.223Z,79.51
2018-07-10T06:06:45.010Z,78.93
2018-07-10T06:07:45.035Z,78.55
2018-07-10T06:08:44.962Z,78.59
2018-07-10T06:09:45.048Z,78.49
2018-07-10T06:10:44.915Z,78.30
2018-07-10T06:11:44.959Z,78.30
2018-07-10T06:12:44.873Z,77.34
2018-07-10T06:13:44.975Z,78.11
2018-07-10T06:14:44.827Z,78.20
2018-07-10T06:15:44.886Z,78.30
2018-07-10T06:16:44.785Z,77.82
2018-07-10T06:17:44.796Z,76.96
2018-07-10T06:18:44.740Z,77.67
2018-07-10T06:19:44.812Z,77.25
2018-07-10T06:20:44.694Z,77.06
2018-07-10T06:21:44.725Z,77.00
2018-07-10T06:22:44.656Z,77.38
2018-07-10T06:23:44.738Z,77.86
2018-07-10T06:24:44.628Z,77.38
2018-07-10T06:25:44.675Z,76.32
2018-07-10T06:26:44.561Z,77.38
2018-07-10T06:27:44.662Z,77.00
2018-07-10T06:28:44.515Z,76.81
2018-07-10T06:29:44.586Z,76.52
2018-07-10T06:30:44.473Z,76.84
2018-07-10T06:31:44.588Z,76.42
2018-07-10T06:32:44.427Z,76.52
2018-07-10T06:33:44.500Z,75.89
2018-07-10T06:34:44.384Z,75.21
2018-07-10T06:35:44.412Z,74.54
2018-07-10T06:36:44.341Z,74.35
2018-07-10T06:37:44.426Z,73.49
2018-07-10T06:38:44.309Z,73.58
2018-07-10T06:39:44.362Z,74.54
2018-07-10T06:40:44.256Z,74.06
2018-07-10T06:41:44.354Z,74.06
2018-07-10T06:42:44.207Z,74.35
2018-07-10T06:43:44.265Z,73.87
2018-07-10T06:44:44.165Z,73.20
2018-07-10T06:45:44.276Z,74.12
2018-07-10T06:46:44.125Z,74.79
2018-07-10T06:47:44.192Z,74.60
2018-07-10T06:48:44.084Z,74.35
2018-07-10T06:49:44.206Z,73.68
2018-07-10T06:50:44.037Z,73.20
2018-07-10T06:51:44.119Z,73.49
2018-07-10T06:52:44.107Z,73.49
2018-07-10T06:53:44.116Z,73.20
2018-07-10T06:54:43.946Z,73.20
2018-07-10T06:55:44.043Z,73.77
2018-07-10T06:56:43.904Z,73.49
2018-07-10T06:57:43.953Z,73.39
2018-07-10T06:58:43.866Z,73.58
2018-07-10T06:59:43.967Z,73.04
2018-07-10T07:00:43.841Z,73.04
2018-07-10T07:01:43.872Z,72.75
2018-07-10T07:02:43.791Z,72.28
2018-07-10T07:03:43.895Z,72.56
2018-07-10T07:04:43.727Z,72.56
2018-07-10T07:05:43.806Z,71.70
2018-07-10T07:06:43.678Z,71.95
2018-07-10T07:07:43.864Z,72.47
2018-07-10T07:08:43.644Z,72.18
2018-07-10T07:09:43.762Z,71.61
2018-07-10T07:10:43.603Z,71.51
2018-07-10T07:11:43.746Z,71.22
2018-07-10T07:12:43.559Z,71.61
2018-07-10T07:13:43.657Z,71.22
2018-07-10T07:14:43.512Z,71.41
2018-07-10T07:15:43.578Z,71.89
2018-07-10T07:16:43.469Z,71.76
2018-07-10T07:17:43.453Z,71.98
2018-07-10T07:18:43.440Z,72.14
2018-07-10T07:19:43.502Z,72.43
2018-07-10T07:20:43.381Z,72.05
2018-07-10T07:21:43.514Z,72.24
2018-07-10T07:22:43.519Z,72.63
2018-07-10T07:23:43.323Z,72.08
2018-07-10T07:24:43.429Z,72.66
2018-07-10T07:25:43.277Z,71.70
2018-07-10T07:26:43.341Z,71.31
2018-07-10T07:27:43.237Z,70.74
2018-07-10T07:28:43.218Z,70.36
2018-07-10T07:29:43.372Z,70.58
2018-07-10T07:30:43.169Z,70.68
2018-07-10T07:31:43.274Z,70.68
2018-07-10T07:32:43.125Z,71.41
2018-07-10T07:33:43.292Z,71.03
2018-07-10T07:34:43.081Z,70.93
2018-07-10T07:35:43.198Z,71.51
2018-07-10T07:36:43.038Z,71.89
2018-07-10T07:37:43.206Z,71.66
2018-07-10T07:38:42.998Z,72.43
2018-07-10T07:39:43.125Z,71.70
2018-07-10T07:40:42.961Z,71.47
2018-07-10T07:41:43.038Z,71.76
2018-07-10T07:42:42.911Z,71.12
2018-07-10T07:43:43.062Z,70.93
2018-07-10T07:44:42.866Z,70.93
2018-07-10T07:45:42.966Z,71.12
2018-07-10T07:46:42.827Z,71.31
2018-07-10T07:47:42.977Z,71.12
2018-07-10T07:48:42.783Z,71.03
2018-07-10T07:49:42.761Z,71.80
2018-07-10T07:50:42.895Z,70.93
2018-07-10T07:51:42.719Z,70.84
2018-07-10T07:52:42.808Z,69.78
2018-07-10T07:53:42.673Z,69.30
2018-07-10T07:54:42.652Z,69.59
2018-07-10T07:55:42.830Z,69.78
2018-07-10T07:56:42.616Z,69.49
2018-07-10T07:57:42.741Z,69.59
2018-07-10T07:58:42.568Z,70.55
2018-07-10T07:59:42.547Z,70.55
2018-07-10T08:00:42.531Z,69.78
2018-07-10T08:01:42.565Z,69.59
2018-07-10T08:02:42.487Z,69.78
2018-07-10T08:03:42.477Z,70.39
2018-07-10T08:04:42.439Z,69.53
2018-07-10T08:05:42.434Z,70.58
2018-07-10T08:06:42.497Z,69.53
2018-07-10T08:07:42.375Z,69.34
2018-07-10T08:08:42.410Z,69.14
2018-07-10T08:09:42.352Z,68.76
2018-07-10T08:10:42.425Z,68.95
2018-07-10T08:11:42.293Z,69.05
2018-07-10T08:12:42.274Z,69.05
2018-07-10T08:13:42.246Z,69.05
2018-07-10T08:14:42.248Z,69.46
2018-07-10T08:15:42.209Z,69.05
2018-07-10T08:16:42.269Z,69.91
2018-07-10T08:17:42.270Z,69.81
2018-07-10T08:18:42.141Z,69.53
2018-07-10T08:19:42.183Z,68.95
2018-07-10T08:20:42.100Z,69.81
2018-07-10T08:21:42.095Z,69.14
2018-07-10T08:22:42.059Z,69.24
2018-07-10T08:23:42.107Z,69.27
2018-07-10T08:24:42.018Z,69.18
2018-07-10T08:25:42.021Z,69.08
2018-07-10T08:26:41.976Z,68.89
2018-07-10T08:27:42.039Z,69.05
2018-07-10T08:28:41.939Z,69.34
2018-07-10T08:29:41.949Z,70.01
2018-07-10T08:30:41.909Z,69.62
2018-07-10T08:31:41.959Z,70.64
2018-07-10T08:32:41.849Z,70.45
2018-07-10T08:33:41.942Z,70.36
2018-07-10T08:34:41.806Z,71.12
2018-07-10T08:35:41.887Z,71.31
2018-07-10T08:36:41.764Z,71.70
2018-07-10T08:37:41.799Z,71.70
2018-07-10T08:38:41.724Z,71.73
2018-07-10T08:39:41.814Z,70.20
2018-07-10T08:40:41.682Z,69.91
2018-07-10T08:41:41.726Z,69.81
2018-07-10T08:42:41.642Z,70.49
2018-07-10T08:43:41.638Z,70.68
2018-07-10T08:44:41.592Z,70.39
2018-07-10T08:45:41.654Z,71.06
2018-07-10T08:46:41.555Z,71.06
2018-07-10T08:47:41.573Z,71.06
2018-07-10T08:48:41.514Z,70.36
2018-07-10T08:49:41.575Z,70.97
2018-07-10T08:50:41.518Z,70.26
2018-07-10T08:51:41.489Z,70.68
2018-07-10T08:52:41.427Z,70.29
2018-07-10T08:53:41.501Z,70.68
2018-07-10T08:54:41.391Z,70.74
2018-07-10T08:55:41.414Z,70.93
2018-07-10T08:56:41.342Z,71.22
2018-07-10T08:57:41.429Z,71.12
2018-07-10T08:58:41.298Z,71.03
2018-07-10T08:59:41.388Z,71.31
2018-07-10T09:00:41.257Z,70.93
2018-07-10T09:01:41.255Z,71.03
2018-07-10T09:02:41.224Z,70.93
2018-07-10T09:03:41.263Z,71.41
2018-07-10T09:04:41.171Z,71.31
2018-07-10T09:05:41.178Z,71.70
2018-07-10T09:06:41.129Z,71.61
2018-07-10T09:07:41.194Z,71.61
2018-07-10T09:08:41.093Z,71.31
2018-07-10T09:09:41.102Z,71.61
2018-07-10T09:10:41.046Z,71.41
2018-07-10T09:11:41.116Z,71.61
2018-07-10T09:12:41.003Z,71.80
2018-07-10T09:13:41.027Z,71.22
2018-07-10T09:14:40.960Z,71.31
2018-07-10T09:15:41.043Z,71.41
2018-07-10T09:16:40.921Z,70.84
2018-07-10T09:17:40.955Z,70.93
2018-07-10T09:18:40.875Z,71.51
2018-07-10T09:19:40.866Z,71.41
2018-07-10T09:20:40.832Z,71.89
2018-07-10T09:21:40.885Z,71.89
2018-07-10T09:22:40.794Z,71.89
2018-07-10T09:23:40.791Z,71.80
2018-07-10T09:24:40.745Z,71.51
2018-07-10T09:25:40.806Z,71.12
2018-07-10T09:26:40.706Z,71.31
2018-07-10T09:27:40.717Z,70.93
2018-07-10T09:28:40.660Z,71.22
2018-07-10T09:29:40.731Z,71.22
2018-07-10T09:30:40.618Z,72.28
2018-07-10T09:31:40.650Z,71.61
2018-07-10T09:32:40.574Z,71.51
2018-07-10T09:33:40.673Z,71.98
2018-07-10T09:34:40.532Z,72.28
2018-07-10T09:35:40.579Z,71.61
2018-07-10T09:36:40.490Z,71.35
2018-07-10T09:37:40.481Z,70.26
2018-07-10T09:38:40.449Z,71.03
2018-07-10T09:39:40.500Z,71.16
2018-07-10T09:40:40.405Z,71.06
2018-07-10T09:41:40.411Z,70.49
2018-07-10T09:42:40.358Z,70.39
2018-07-10T09:43:40.428Z,70.64
2018-07-10T09:44:40.320Z,70.55
2018-07-10T09:45:40.336Z,70.45
2018-07-10T09:46:40.274Z,70.55
2018-07-10T09:47:40.348Z,70.26
2018-07-10T09:48:40.235Z,70.93
2018-07-10T09:49:40.262Z,71.12
2018-07-10T09:50:40.193Z,71.80
2018-07-10T09:51:40.277Z,71.41
2018-07-10T09:52:40.151Z,70.36
2018-07-10T09:53:40.187Z,70.45
2018-07-10T09:54:40.145Z,71.09
2018-07-10T09:55:40.103Z,71.80
2018-07-10T09:56:40.064Z,71.70
2018-07-10T09:57:40.113Z,72.47
2018-07-10T09:58:40.025Z,71.22
2018-07-10T09:59:40.024Z,71.80
2018-07-10T10:00:39.982Z,71.89
2018-07-10T10:01:40.039Z,72.37
2018-07-10T10:02:40.052Z,72.08
2018-07-10T10:03:39.915Z,71.89
2018-07-10T10:04:39.950Z,72.56
2018-07-10T10:05:39.876Z,71.80
2018-07-10T10:06:39.869Z,71.31
2018-07-10T10:07:39.827Z,71.31
2018-07-10T10:08:39.882Z,71.98
2018-07-10T10:09:39.785Z,71.70
2018-07-10T10:10:39.793Z,72.14
2018-07-10T10:11:39.744Z,71.61
2018-07-10T10:12:39.808Z,71.41
2018-07-10T10:13:39.700Z,71.80
2018-07-10T10:14:39.720Z,71.89
2018-07-10T10:15:39.662Z,71.61
2018-07-10T10:16:39.794Z,71.12
2018-07-10T10:17:39.617Z,70.49
2018-07-10T10:18:39.647Z,70.68
2018-07-10T10:19:39.568Z,70.01
2018-07-10T10:20:39.660Z,70.01
2018-07-10T10:21:39.526Z,70.58
2018-07-10T10:22:39.572Z,69.72
2018-07-10T10:23:39.482Z,69.43
2018-07-10T10:24:39.484Z,69.43
2018-07-10T10:25:39.497Z,70.14
2018-07-10T10:26:39.498Z,69.72
2018-07-10T10:27:39.397Z,69.34
2018-07-10T10:28:39.410Z,69.81
2018-07-10T10:29:39.359Z,70.20
2018-07-10T10:30:39.427Z,70.68
2018-07-10T10:31:39.315Z,70.39
2018-07-10T10:32:39.335Z,70.39
2018-07-10T10:33:39.269Z,70.10
2018-07-10T10:34:39.350Z,70.29
2018-07-10T10:35:39.258Z,70.49
2018-07-10T10:36:39.256Z,71.41
2018-07-10T10:37:39.184Z,71.12
2018-07-10T10:38:39.280Z,71.41
2018-07-10T10:39:39.141Z,71.61
2018-07-10T10:40:39.189Z,71.31
2018-07-10T10:41:39.099Z,71.89
2018-07-10T10:42:39.103Z,71.45
2018-07-10T10:43:39.055Z,71.64
2018-07-10T10:44:39.132Z,71.83
2018-07-10T10:45:39.015Z,72.12
2018-07-10T10:46:39.028Z,72.22
2018-07-10T10:47:38.972Z,71.83
2018-07-10T10:48:39.041Z,71.93
2018-07-10T10:49:38.929Z,72.89
2018-07-10T10:50:38.954Z,72.50
2018-07-10T10:51:38.885Z,71.73
2018-07-10T10:52:38.971Z,71.55
2018-07-10T10:53:38.843Z,71.35
2018-07-10T10:54:38.879Z,71.93
2018-07-10T10:55:38.799Z,71.73
2018-07-10T10:56:38.896Z,71.45
2018-07-10T10:57:38.755Z,71.73
2018-07-10T10:58:38.736Z,71.73
2018-07-10T10:59:38.713Z,71.73
2018-07-10T11:00:38.822Z,71.45
2018-07-10T11:01:38.672Z,71.93
2018-07-10T11:02:38.794Z,71.55
2018-07-10T11:03:38.739Z,72.60
2018-07-10T11:04:38.607Z,72.22
2018-07-10T11:05:38.658Z,72.31
2018-07-10T11:06:38.563Z,72.89
2018-07-10T11:07:38.569Z,72.22
2018-07-10T11:08:38.605Z,71.93
2018-07-10T11:09:38.677Z,71.87
2018-07-10T11:10:38.578Z,71.77
2018-07-10T11:11:38.580Z,71.48
2018-07-10T11:12:38.529Z,71.67
2018-07-10T11:13:38.593Z,71.71
2018-07-10T11:14:38.490Z,71.71
2018-07-10T11:15:38.508Z,71.23
2018-07-10T11:16:38.430Z,70.75
2018-07-10T11:17:38.523Z,69.79
2018-07-10T11:18:38.378Z,70.33
2018-07-10T11:19:38.495Z,71.10
2018-07-10T11:20:38.328Z,70.52
2018-07-10T11:21:38.350Z,71.29
2018-07-10T11:22:38.293Z,71.87
2018-07-10T11:23:38.420Z,72.25
2018-07-10T11:24:38.183Z,72.34
2018-07-10T11:25:38.179Z,72.34
2018-07-10T11:26:38.140Z,72.73
2018-07-10T11:27:38.293Z,72.92
2018-07-10T11:28:38.098Z,73.18
2018-07-10T11:29:38.202Z,73.75
2018-07-10T11:30:38.057Z,73.56
2018-07-10T11:31:38.226Z,73.37
2018-07-10T11:32:38.015Z,73.31
2018-07-10T11:33:38.134Z,74.04
2018-07-10T11:34:37.975Z,74.04
2018-07-10T11:35:38.146Z,74.33
2018-07-10T11:36:37.937Z,74.62
2018-07-10T11:37:38.059Z,74.33
2018-07-10T11:38:37.886Z,74.33
2018-07-10T11:39:37.969Z,74.62
2018-07-10T11:40:37.965Z,75.20
2018-07-10T11:41:37.973Z,75.57
2018-07-10T11:42:37.908Z,75.10
2018-07-10T11:43:37.988Z,75.77
2018-07-10T11:44:37.760Z,76.06
2018-07-10T11:45:37.982Z,78.42
2018-07-10T11:46:37.808Z,78.90
2018-07-10T11:47:37.827Z,79.47
2018-07-10T11:48:37.804Z,80.82
2018-07-10T11:49:37.825Z,81.93
2018-07-10T11:50:37.725Z,82.31
2018-07-10T11:51:37.760Z,82.31
2018-07-10T11:52:37.671Z,84.04
2018-07-10T11:53:37.751Z,84.81
2018-07-10T11:54:37.611Z,85.58
2018-07-10T11:55:37.560Z,85.38
2018-07-10T11:56:37.507Z,86.82
2018-07-10T11:57:37.678Z,86.72
2018-07-10T11:58:37.461Z,86.21
2018-07-10T11:59:37.598Z,86.88
2018-07-10T12:00:37.418Z,86.49
2018-07-10T12:01:37.613Z,87.07
2018-07-10T12:02:37.373Z,87.26
2018-07-10T12:03:37.526Z,87.93
2018-07-10T12:04:37.333Z,87.45
2018-07-10T12:05:37.436Z,88.89
2018-07-10T12:06:37.291Z,88.98
2018-07-10T12:07:37.350Z,87.35
2018-07-10T12:08:37.251Z,88.60
2018-07-10T12:09:37.260Z,88.79
2018-07-10T12:10:37.205Z,88.70
2018-07-10T12:11:37.277Z,88.51
2018-07-10T12:12:37.197Z,89.08
2018-07-10T12:13:37.187Z,88.60
2018-07-10T12:14:37.114Z,89.08
2018-07-10T12:15:37.207Z,88.98
2018-07-10T12:16:37.072Z,88.12
2018-07-10T12:17:37.112Z,88.79
2018-07-10T12:18:37.025Z,88.98
2018-07-10T12:19:37.125Z,89.75
2018-07-10T12:20:36.983Z,89.18
2018-07-10T12:21:37.040Z,89.75
2018-07-10T12:22:36.937Z,90.42
2018-07-10T12:23:37.053Z,90.04
2018-07-10T12:24:36.897Z,88.70
2018-07-10T12:25:36.970Z,88.55
2018-07-10T12:26:36.948Z,88.84
2018-07-10T12:27:36.876Z,88.74
2018-07-10T12:28:36.808Z,88.45
2018-07-10T12:29:36.890Z,87.59
2018-07-10T12:30:36.763Z,88.26
2018-07-10T12:31:36.801Z,87.78
2018-07-10T12:32:36.728Z,87.78
2018-07-10T12:33:36.817Z,87.40
2018-07-10T12:34:36.682Z,87.78
2018-07-10T12:35:36.725Z,88.65
2018-07-10T12:36:36.628Z,87.59
2018-07-10T12:37:36.706Z,88.26
2018-07-10T12:38:36.594Z,87.40
2018-07-10T12:39:36.617Z,87.35
2018-07-10T12:40:36.547Z,87.92
2018-07-10T12:41:36.647Z,86.87
2018-07-10T12:42:36.502Z,87.01
2018-07-10T12:43:36.540Z,86.09
2018-07-10T12:44:36.466Z,85.41
2018-07-10T12:45:36.452Z,84.55
2018-07-10T12:46:36.417Z,84.26
2018-07-10T12:47:36.461Z,83.44
2018-07-10T12:48:36.373Z,83.15
2018-07-10T12:49:36.373Z,83.06
2018-07-10T12:50:36.328Z,81.90
2018-07-10T12:51:36.385Z,82.09
2018-07-10T12:52:36.287Z,81.71
2018-07-10T12:53:36.296Z,82.29